createdAt,value
2017-04-12T00:00:05.976Z,31.9
2017-04-12T00:02:05.662Z,31.9
2017-04-12T00:04:06.142Z,31.9
2017-04-12T00:06:06.277Z,31.9
2017-04-12T00:08:06.024Z,31.7
2017-04-12T00:10:05.266Z,32
2017-04-12T00:12:06.297Z,31.8
2017-04-12T00:14:08.528Z,32
2017-04-12T00:16:07.747Z,32
2017-04-12T00:18:05.798Z,31.7
2017-04-12T00:20:05.396Z,32
2017-04-12T00:22:05.083Z,31.8
2017-04-12T00:24:06.134Z,32
2017-04-12T00:26:05.814Z,32
2017-04-12T00:28:05.523Z,32.1
2017-04-12T00:30:05.524Z,32
2017-04-12T00:32:05.771Z,32
2017-04-12T00:34:05.078Z,31.8
2017-04-12T00:36:06.094Z,32
2017-04-12T00:38:05.790Z,32
2017-04-12T00:40:05.459Z,32
2017-04-12T00:42:06.071Z,32
2017-04-12T00:44:07.823Z,32
2017-04-12T00:46:05.039Z,32
2017-04-12T00:48:05.892Z,32
2017-04-12T00:50:05.182Z,32
2017-04-12T00:52:06.134Z,31.8
2017-04-12T00:54:07.035Z,32
2017-04-12T00:56:05.768Z,32
2017-04-12T00:58:08.013Z,31.8
2017-04-12T01:00:09.593Z,32
2017-04-12T01:02:05.289Z,31.8
2017-04-12T01:04:05.090Z,31.8
2017-04-12T01:06:05.989Z,32
2017-04-12T01:08:05.887Z,31.8
2017-04-12T01:10:05.125Z,31.8
2017-04-12T01:12:06.886Z,32.1
2017-04-12T01:14:05.573Z,31.8
2017-04-12T01:16:11.709Z,31.8
2017-04-12T01:18:07.930Z,32.1
2017-04-12T01:20:05.038Z,32.1
2017-04-12T01:22:05.733Z,32.1
2017-04-12T01:24:05.786Z,32.1
2017-04-12T01:26:05.994Z,32
2017-04-12T01:28:05.690Z,31.8
2017-04-12T01:30:11.748Z,31.9
2017-04-12T01:32:08.398Z,31.8
2017-04-12T01:34:05.097Z,31.9
2017-04-12T01:36:11.789Z,31.9
2017-04-12T01:38:07.654Z,31.9
2017-04-12T01:40:06.272Z,31.8
2017-04-12T01:42:05.789Z,31.8
2017-04-12T01:44:05.474Z,31.9
2017-04-12T01:46:05.716Z,31.9
2017-04-12T01:48:05.705Z,31.9
2017-04-12T01:50:05.521Z,32.1
2017-04-12T01:52:07.799Z,31.8
2017-04-12T01:54:05.650Z,31.8
2017-04-12T01:56:08.210Z,31.8
2017-04-12T01:58:08.421Z,31.8
2017-04-12T02:00:05.258Z,31.8
2017-04-12T02:02:08.563Z,31.9
2017-04-12T02:04:05.812Z,31.9
2017-04-12T02:06:05.843Z,32
2017-04-12T02:08:05.585Z,32.2
2017-04-12T02:10:07.821Z,32.2
2017-04-12T02:12:05.910Z,32
2017-04-12T02:14:05.582Z,31.9
2017-04-12T02:16:05.348Z,31.9
2017-04-12T02:18:06.189Z,32.1
2017-04-12T02:20:08.430Z,32.1
2017-04-12T02:22:05.133Z,31.9
2017-04-12T02:24:06.195Z,31.9
2017-04-12T02:26:05.985Z,31.9
2017-04-12T02:28:06.122Z,31.9
2017-04-12T02:30:05.982Z,31.9
2017-04-12T02:32:05.700Z,31.9
2017-04-12T02:34:05.459Z,31.9
2017-04-12T02:36:05.487Z,31.9
2017-04-12T02:38:05.233Z,31.9
2017-04-12T02:40:05.976Z,31.9
2017-04-12T02:42:06.054Z,31.9
2017-04-12T02:44:06.037Z,31.9
2017-04-12T02:46:05.772Z,31.9
2017-04-12T02:48:06.347Z,31.9
2017-04-12T02:50:05.003Z,31.9
2017-04-12T02:52:05.670Z,31.9
2017-04-12T02:54:05.603Z,31.9
2017-04-12T02:56:05.284Z,32
2017-04-12T02:58:05.972Z,32
2017-04-12T03:00:05.500Z,32
2017-04-12T03:02:05.180Z,32.1
2017-04-12T03:04:05.870Z,32
2017-04-12T03:06:05.680Z,32
2017-04-12T03:08:05.482Z,32.2
2017-04-12T03:10:05.145Z,32
2017-04-12T03:12:06.207Z,32.1
2017-04-12T03:14:05.882Z,32.1
2017-04-12T03:16:05.888Z,32.1
2017-04-12T03:18:05.997Z,32.2
2017-04-12T03:20:05.798Z,32.1
2017-04-12T03:22:05.497Z,32.1
2017-04-12T03:24:05.873Z,32.1
2017-04-12T03:26:05.564Z,32
2017-04-12T03:28:05.845Z,32
2017-04-12T03:30:05.687Z,32
2017-04-12T03:32:05.724Z,32.1
2017-04-12T03:34:05.418Z,32.1
2017-04-12T03:36:06.048Z,32
2017-04-12T03:38:05.702Z,32.1
2017-04-12T03:40:05.418Z,32
2017-04-12T03:42:05.513Z,32
2017-04-12T03:44:05.217Z,32
2017-04-12T03:46:05.914Z,32
2017-04-12T03:48:05.943Z,32
2017-04-12T03:50:05.679Z,32
2017-04-12T03:52:05.390Z,32
2017-04-12T03:54:05.621Z,32
2017-04-12T03:56:05.337Z,32
2017-04-12T03:58:05.084Z,32
2017-04-12T04:00:08.806Z,32
2017-04-12T04:02:05.483Z,32
2017-04-12T04:04:05.551Z,32
2017-04-12T04:06:05.563Z,31.9
2017-04-12T04:08:08.314Z,32
2017-04-12T04:10:06.007Z,32
2017-04-12T04:12:05.864Z,31.9
2017-04-12T04:14:05.599Z,31.9
2017-04-12T04:16:05.266Z,32
2017-04-12T04:18:07.918Z,32
2017-04-12T04:20:05.876Z,32
2017-04-12T04:22:05.614Z,32
2017-04-12T04:24:05.644Z,32
2017-04-12T04:26:05.425Z,32
2017-04-12T04:28:11.747Z,32
2017-04-12T04:30:08.611Z,31.9
2017-04-12T04:32:07.870Z,31.9
2017-04-12T04:34:05.560Z,31.9
2017-04-12T04:36:05.553Z,31.9
2017-04-12T04:38:05.336Z,31.9
2017-04-12T04:40:05.027Z,31.9
2017-04-12T04:42:06.079Z,31.9
2017-04-12T04:44:05.857Z,31.9
2017-04-12T04:46:05.614Z,31.9
2017-04-12T04:48:05.576Z,31.9
2017-04-12T04:50:07.817Z,31.8
2017-04-12T04:52:13.234Z,31.9
2017-04-12T04:54:05.731Z,31.9
2017-04-12T04:56:05.433Z,31.9
2017-04-12T04:58:06.141Z,31.9
2017-04-12T05:00:05.679Z,31.9
2017-04-12T05:02:05.408Z,31.9
2017-04-12T05:04:05.103Z,31.9
2017-04-12T05:06:05.683Z,31.9
2017-04-12T05:08:05.723Z,31.9
2017-04-12T05:10:05.453Z,31.9
2017-04-12T05:12:05.378Z,31.9
2017-04-12T05:14:05.089Z,32
2017-04-12T05:16:05.768Z,31.9
2017-04-12T05:18:05.816Z,31.9
2017-04-12T05:20:05.522Z,31.9
2017-04-12T05:22:05.281Z,31.9
2017-04-12T05:24:07.768Z,31.9
2017-04-12T05:26:05.491Z,31.9
2017-04-12T05:28:07.706Z,31.9
2017-04-12T05:30:05.596Z,31.9
2017-04-12T05:32:05.389Z,31.9
2017-04-12T05:34:05.107Z,31.9
2017-04-12T05:36:06.074Z,31.9
2017-04-12T05:38:05.836Z,31.9
2017-04-12T05:40:08.498Z,32
2017-04-12T05:42:12.966Z,32
2017-04-12T05:44:05.659Z,32
2017-04-12T05:46:06.032Z,32
2017-04-12T05:48:08.608Z,31.9
2017-04-12T05:50:05.309Z,32
2017-04-12T05:52:08.525Z,32
2017-04-12T05:54:07.972Z,32
2017-04-12T05:56:05.510Z,32
2017-04-12T05:58:07.735Z,32
2017-04-12T06:00:05.645Z,32
2017-04-12T06:02:05.887Z,31.9
2017-04-12T06:04:05.650Z,32
2017-04-12T06:06:05.626Z,32
2017-04-12T06:08:07.869Z,32
2017-04-12T06:10:05.604Z,32
2017-04-12T06:12:08.181Z,32
2017-04-12T06:14:05.963Z,32
2017-04-12T06:16:05.219Z,32.1
2017-04-12T06:18:07.945Z,32
2017-04-12T06:20:05.616Z,32
2017-04-12T06:22:05.310Z,32
2017-04-12T06:24:06.862Z,32
2017-04-12T06:26:08.079Z,32.1
2017-04-12T06:28:18.576Z,32
2017-04-12T06:30:06.304Z,32
2017-04-12T06:32:05.165Z,32
2017-04-12T06:34:06.249Z,32.1
2017-04-12T06:36:05.459Z,32.1
2017-04-12T06:38:05.950Z,32.3
2017-04-12T06:40:05.895Z,32.4
2017-04-12T06:42:05.747Z,32.3
2017-04-12T06:44:11.128Z,32.2
2017-04-12T06:46:05.154Z,32.2
2017-04-12T06:48:06.115Z,32.2
2017-04-12T06:50:13.467Z,32.1
2017-04-12T06:52:05.188Z,32.1
2017-04-12T06:54:06.191Z,32.1
2017-04-12T06:56:05.948Z,32.3
2017-04-12T06:58:07.895Z,32.1
2017-04-12T07:00:05.864Z,32.2
2017-04-12T07:02:05.590Z,32.1
2017-04-12T07:04:08.028Z,32
2017-04-12T07:06:05.807Z,32
2017-04-12T07:08:05.625Z,31.9
2017-04-12T07:10:05.821Z,32
2017-04-12T07:12:08.120Z,31.9
2017-04-12T07:14:07.754Z,32
2017-04-12T07:16:06.479Z,32
2017-04-12T07:18:10.780Z,32
2017-04-12T07:20:05.265Z,32
2017-04-12T07:22:13.600Z,32.2
2017-04-12T07:24:10.312Z,32.2
2017-04-12T07:26:05.723Z,32.2
2017-04-12T07:28:05.915Z,32.6
2017-04-12T07:30:08.488Z,32.8
2017-04-12T07:32:05.936Z,32.8
2017-04-12T07:34:05.649Z,33
2017-04-12T07:36:06.042Z,32.6
2017-04-12T07:38:05.963Z,32.8
2017-04-12T07:40:10.741Z,32.8
2017-04-12T07:42:05.917Z,32.6
2017-04-12T07:44:05.709Z,32.5
2017-04-12T07:46:05.443Z,32.4
2017-04-12T07:48:05.361Z,32.3
2017-04-12T07:50:07.607Z,32.3
2017-04-12T07:52:07.812Z,32.4
2017-04-12T07:54:05.888Z,32.1
2017-04-12T07:56:05.649Z,32.3
2017-04-12T07:58:05.403Z,32.3
2017-04-12T08:00:05.479Z,32.2
2017-04-12T08:02:05.206Z,32.4
2017-04-12T08:04:08.757Z,32.6
2017-04-12T08:06:08.265Z,32.5
2017-04-12T08:08:05.922Z,32.3
2017-04-12T08:10:05.663Z,32.5
2017-04-12T08:12:05.675Z,32.8
2017-04-12T08:14:05.903Z,32.8
2017-04-12T08:16:05.800Z,32.6
2017-04-12T08:18:08.550Z,32.9
2017-04-12T08:20:06.106Z,32.7
2017-04-12T08:22:05.782Z,33
2017-04-12T08:24:05.600Z,33
2017-04-12T08:26:05.527Z,33
2017-04-12T08:28:11.078Z,33
2017-04-12T08:30:06.894Z,33
2017-04-12T08:32:08.228Z,33.2
2017-04-12T08:34:05.938Z,33.2
2017-04-12T08:36:06.188Z,33.2
2017-04-12T08:38:05.936Z,33.5
2017-04-12T08:40:05.746Z,33.6
2017-04-12T08:42:06.124Z,33.5
2017-04-12T08:44:05.748Z,33.7
2017-04-12T08:46:05.481Z,33.5
2017-04-12T08:48:08.498Z,33.6
2017-04-12T08:50:05.463Z,33.6
2017-04-12T08:52:08.222Z,33.8
2017-04-12T08:54:06.073Z,33.7
2017-04-12T08:56:05.780Z,33.7
2017-04-12T08:58:05.482Z,33.6
2017-04-12T09:00:05.696Z,33.6
2017-04-12T09:02:05.922Z,33.6
2017-04-12T09:04:07.324Z,33.6
2017-04-12T09:06:06.376Z,33.4
2017-04-12T09:08:05.734Z,33.9
2017-04-12T09:10:05.435Z,33.6
2017-04-12T09:12:05.291Z,34
2017-04-12T09:14:06.301Z,33.9
2017-04-12T09:16:06.318Z,33.9
2017-04-12T09:18:08.149Z,34.5
2017-04-12T09:20:08.479Z,34.4
2017-04-12T09:22:05.277Z,34.4
2017-04-12T09:24:10.809Z,34.4
2017-04-12T09:26:05.471Z,34.4
2017-04-12T09:28:05.141Z,34.6
2017-04-12T09:30:08.531Z,34.7
2017-04-12T09:32:08.026Z,34.6
2017-04-12T09:34:05.239Z,34.6
2017-04-12T09:36:11.152Z,34.6
2017-04-12T09:38:07.554Z,34.6
2017-04-12T09:40:08.215Z,34.5
2017-04-12T09:42:06.066Z,34.5
2017-04-12T09:44:05.717Z,34.5
2017-04-12T09:46:05.433Z,34.5
2017-04-12T09:48:08.477Z,34.6
2017-04-12T09:50:15.507Z,34.4
2017-04-12T09:52:10.248Z,34.5
2017-04-12T09:54:06.107Z,34.5
2017-04-12T09:56:06.244Z,34.5
2017-04-12T09:58:05.951Z,34.6
2017-04-12T10:00:06.380Z,34.4
2017-04-12T10:02:07.806Z,34.4
2017-04-12T10:04:05.496Z,34.4
2017-04-12T10:06:05.665Z,34.5
2017-04-12T10:08:05.384Z,34.5
2017-04-12T10:10:05.053Z,34.5
2017-04-12T10:12:05.640Z,34.5
2017-04-12T10:14:05.337Z,34.6
2017-04-12T10:16:05.255Z,34.4
2017-04-12T10:18:07.989Z,34.6
2017-04-12T10:20:05.701Z,34.4
2017-04-12T10:22:05.501Z,34.4
2017-04-12T10:24:06.148Z,34.4
2017-04-12T10:26:05.849Z,34.5
2017-04-12T10:28:08.472Z,34.6
2017-04-12T10:30:05.656Z,34.5
2017-04-12T10:32:05.348Z,34.6
2017-04-12T10:34:10.173Z,34.4
2017-04-12T10:36:11.084Z,34.6
2017-04-12T10:38:10.855Z,34.6
2017-04-12T10:40:05.593Z,34.4
2017-04-12T10:42:06.093Z,34.6
2017-04-12T10:44:05.941Z,34.4
2017-04-12T10:46:05.623Z,34.5
2017-04-12T10:48:05.592Z,34.5
2017-04-12T10:50:05.307Z,34.5
2017-04-12T10:52:05.048Z,34.5
2017-04-12T10:54:06.191Z,34.5
2017-04-12T10:56:05.937Z,34.5
2017-04-12T10:58:10.818Z,34.5
2017-04-12T11:00:05.267Z,34.5
2017-04-12T11:02:05.960Z,34.6
2017-04-12T11:04:05.910Z,34.5
2017-04-12T11:06:05.945Z,34.5
2017-04-12T11:08:05.269Z,34.8
2017-04-12T11:10:05.973Z,34.6
2017-04-12T11:12:06.258Z,34.6
2017-04-12T11:14:05.899Z,34.5
2017-04-12T11:16:05.700Z,34.8
2017-04-12T11:18:07.251Z,34.9
2017-04-12T11:20:06.009Z,34.9
2017-04-12T11:22:05.244Z,35
2017-04-12T11:24:06.106Z,35.1
2017-04-12T11:26:06.288Z,35.1
2017-04-12T11:28:06.280Z,35.2
2017-04-12T11:30:09.671Z,35
2017-04-12T11:32:13.506Z,35.1
2017-04-12T11:34:08.150Z,35.1
2017-04-12T11:36:11.490Z,35.1
2017-04-12T11:38:06.029Z,35.1
2017-04-12T11:40:08.222Z,35.1
2017-04-12T11:42:07.959Z,35.1
2017-04-12T11:44:05.626Z,35.1
2017-04-12T11:46:10.945Z,35.2
2017-04-12T11:48:11.204Z,35.1
2017-04-12T11:50:07.643Z,35.1
2017-04-12T11:52:05.224Z,35.2
2017-04-12T11:54:06.273Z,35.2
2017-04-12T11:56:05.646Z,35.2
2017-04-12T11:58:36.651Z,35.1
2017-04-12T12:00:06.194Z,35.1
2017-04-12T12:02:07.931Z,35.1
2017-04-12T12:04:06.030Z,35.1
2017-04-12T12:06:05.636Z,35.1
2017-04-12T12:08:05.591Z,35.2
2017-04-12T12:10:06.960Z,35.1
2017-04-12T12:12:08.283Z,35.1
2017-04-12T12:14:06.185Z,35.1
2017-04-12T12:16:10.954Z,35.1
2017-04-12T12:18:05.651Z,35.2
2017-04-12T12:20:08.052Z,35.2
2017-04-12T12:22:06.375Z,35.1
2017-04-12T12:24:05.466Z,35.2
2017-04-12T12:26:18.015Z,35.1
2017-04-12T12:28:06.914Z,35.1
2017-04-12T12:30:06.601Z,35.2
2017-04-12T12:32:06.226Z,35.1
2017-04-12T12:34:05.174Z,35.1
2017-04-12T12:36:06.290Z,35.1
2017-04-12T12:38:10.287Z,35.1
2017-04-12T12:40:06.055Z,35.1
2017-04-12T12:42:06.416Z,35.1
2017-04-12T12:44:10.394Z,35.1
2017-04-12T12:46:05.359Z,35.1
2017-04-12T12:48:08.384Z,35.1
2017-04-12T12:50:05.856Z,35.1
2017-04-12T12:52:06.345Z,35.1
2017-04-12T12:54:05.233Z,35.1
2017-04-12T12:56:05.462Z,35.1
2017-04-12T12:58:05.696Z,35
2017-04-12T13:00:08.787Z,35
2017-04-12T13:02:07.560Z,35
2017-04-12T13:04:05.317Z,34.9
2017-04-12T13:06:13.443Z,35
2017-04-12T13:08:21.076Z,35.1
2017-04-12T13:10:06.367Z,35
2017-04-12T13:12:08.541Z,35
2017-04-12T13:14:10.763Z,35
2017-04-12T13:16:05.733Z,35
2017-04-12T13:18:06.859Z,34.9
2017-04-12T13:20:06.210Z,34.9
2017-04-12T13:22:05.492Z,35
2017-04-12T13:24:05.481Z,35
2017-04-12T13:26:05.244Z,35
2017-04-12T13:28:05.549Z,35
2017-04-12T13:30:06.911Z,35
2017-04-12T13:32:05.596Z,35
2017-04-12T13:34:05.938Z,35
2017-04-12T13:36:08.519Z,35
2017-04-12T13:38:05.731Z,35
2017-04-12T13:40:08.396Z,35
2017-04-12T13:42:05.440Z,34.8
2017-04-12T13:44:07.205Z,34.8
2017-04-12T13:46:05.708Z,35.1
2017-04-12T13:48:06.961Z,35
2017-04-12T13:50:05.190Z,34.8
2017-04-12T13:52:05.864Z,34.8
2017-04-12T13:54:11.023Z,34.8
2017-04-12T13:56:05.610Z,35
2017-04-12T13:58:05.347Z,34.8
2017-04-12T14:00:07.925Z,34.8
2017-04-12T14:02:05.150Z,34.8
2017-04-12T14:04:05.908Z,34.8
2017-04-12T14:06:06.320Z,34.8
2017-04-12T14:08:05.621Z,34.8
2017-04-12T14:10:05.300Z,34.9
2017-04-12T14:12:05.720Z,34.9
2017-04-12T14:14:05.887Z,34.8
2017-04-12T14:16:05.568Z,34.9
2017-04-12T14:18:08.998Z,34.8
2017-04-12T14:20:05.643Z,34.8
2017-04-12T14:22:05.372Z,34.9
2017-04-12T14:24:07.923Z,34.9
2017-04-12T14:26:05.629Z,34.9
2017-04-12T14:28:07.108Z,34.9
2017-04-12T14:30:06.829Z,34.9
2017-04-12T14:32:10.224Z,34.9
2017-04-12T14:34:12.283Z,34.9
2017-04-12T14:36:05.481Z,34.9
2017-04-12T14:38:07.663Z,34.9
2017-04-12T14:40:11.134Z,35
2017-04-12T14:42:05.629Z,35
2017-04-12T14:44:12.994Z,35
2017-04-12T14:46:05.472Z,35
2017-04-12T14:48:13.317Z,35
2017-04-12T14:50:06.489Z,35
2017-04-12T14:52:15.332Z,34.9
2017-04-12T14:54:09.561Z,34.9
2017-04-12T14:56:06.378Z,34.9
2017-04-12T14:58:06.158Z,34.9
2017-04-12T15:00:09.919Z,34.9
2017-04-12T15:02:06.295Z,34.9
2017-04-12T15:04:05.955Z,34.9
2017-04-12T15:06:11.981Z,34.8
2017-04-12T15:08:08.233Z,34.9
2017-04-12T15:10:13.812Z,34.9
2017-04-12T15:12:12.792Z,34.9
2017-04-12T15:14:11.114Z,34.9
2017-04-12T15:16:07.938Z,34.9
2017-04-12T15:18:15.990Z,34.9
2017-04-12T15:20:05.423Z,34.9
2017-04-12T15:22:08.253Z,35
2017-04-12T15:24:08.528Z,35
2017-04-12T15:26:07.479Z,35
2017-04-12T15:28:06.205Z,34.7
2017-04-12T15:30:12.933Z,35.1
2017-04-12T15:32:06.103Z,35.1
2017-04-12T15:34:05.464Z,35.1
2017-04-12T15:36:05.588Z,35.2
2017-04-12T15:38:08.072Z,35.7
2017-04-12T15:40:05.386Z,35.2
2017-04-12T15:42:06.020Z,35.4
2017-04-12T15:44:08.718Z,35.3
2017-04-12T15:46:06.172Z,35.3
2017-04-12T15:48:06.290Z,35.3
2017-04-12T15:50:07.630Z,35.4
2017-04-12T15:52:07.992Z,35.8
2017-04-12T15:54:06.111Z,35.8
2017-04-12T15:56:05.884Z,35.6
2017-04-12T15:58:05.818Z,35.7
2017-04-12T16:00:06.277Z,35.6
2017-04-12T16:02:05.377Z,35.5
2017-04-12T16:04:05.722Z,35.6
2017-04-12T16:06:05.860Z,35.6
2017-04-12T16:08:07.180Z,35.6
2017-04-12T16:10:09.453Z,35.7
2017-04-12T16:12:07.665Z,35.7
2017-04-12T16:14:05.586Z,35.7
2017-04-12T16:16:08.112Z,35.7
2017-04-12T16:18:13.047Z,35.7
2017-04-12T16:20:10.109Z,35.4
2017-04-12T16:22:05.047Z,35.4
2017-04-12T16:24:06.794Z,35.4
2017-04-12T16:26:05.477Z,35.4
2017-04-12T16:28:06.296Z,35.4
2017-04-12T16:30:06.035Z,35.4
2017-04-12T16:32:05.850Z,35.5
2017-04-12T16:34:08.094Z,35.4
2017-04-12T16:36:13.647Z,35.7
2017-04-12T16:38:09.282Z,35.4
2017-04-12T16:40:05.352Z,35.4
2017-04-12T16:42:05.931Z,35.4
2017-04-12T16:44:06.201Z,35.4
2017-04-12T16:46:05.398Z,35.4
2017-04-12T16:48:07.817Z,35.4
2017-04-12T16:50:05.544Z,35.4
2017-04-12T16:52:06.152Z,35.4
2017-04-12T16:54:05.690Z,35.4
2017-04-12T16:56:05.587Z,35.4
2017-04-12T16:58:05.313Z,35.4
2017-04-12T17:00:05.271Z,35.4
2017-04-12T17:02:05.536Z,35.4
2017-04-12T17:04:05.427Z,35.4
2017-04-12T17:06:05.511Z,35.4
2017-04-12T17:08:06.958Z,35.4
2017-04-12T17:10:05.612Z,35.4
2017-04-12T17:12:09.012Z,35.4
2017-04-12T17:14:08.491Z,35.5
2017-04-12T17:16:05.198Z,35.5
2017-04-12T17:18:05.346Z,36.1
2017-04-12T17:20:07.575Z,35.7
2017-04-12T17:22:05.407Z,35.7
2017-04-12T17:24:05.982Z,35.9
2017-04-12T17:26:05.896Z,35.9
2017-04-12T17:28:05.856Z,36.3
2017-04-12T17:30:05.669Z,36.4
2017-04-12T17:32:10.505Z,36.7
2017-04-12T17:34:07.749Z,36.9
2017-04-12T17:36:08.491Z,37
2017-04-12T17:38:05.259Z,37
2017-04-12T17:40:06.367Z,37.2
2017-04-12T17:42:05.367Z,37.2
2017-04-12T17:44:05.025Z,37.3
2017-04-12T17:46:17.914Z,37.4
2017-04-12T17:48:12.623Z,37.8
2017-04-12T17:50:05.373Z,37.6
2017-04-12T17:52:06.218Z,37.6
2017-04-12T17:54:06.149Z,37.6
2017-04-12T17:56:08.637Z,37.9
2017-04-12T17:58:07.823Z,38.1
2017-04-12T18:00:05.178Z,37.8
2017-04-12T18:02:13.470Z,38
2017-04-12T18:04:05.189Z,38
2017-04-12T18:06:06.151Z,37.9
2017-04-12T18:08:08.439Z,38.1
2017-04-12T18:10:06.137Z,38.1
2017-04-12T18:12:12.217Z,38.1
2017-04-12T18:14:05.202Z,38.1
2017-04-12T18:16:08.380Z,38
2017-04-12T18:18:05.604Z,38
2017-04-12T18:20:05.543Z,38
2017-04-12T18:22:05.233Z,37.9
2017-04-12T18:24:09.017Z,37.8
2017-04-12T18:26:05.886Z,37.8
2017-04-12T18:28:05.303Z,37.9
2017-04-12T18:30:06.170Z,37.9
2017-04-12T18:32:05.083Z,37.5
2017-04-12T18:34:05.784Z,37.7
2017-04-12T18:36:06.625Z,37.5
2017-04-12T18:38:05.589Z,37.4
2017-04-12T18:40:05.292Z,37.4
2017-04-12T18:42:05.311Z,37.3
2017-04-12T18:44:06.130Z,37.3
2017-04-12T18:46:10.865Z,37.3
2017-04-12T18:48:05.920Z,37.3
2017-04-12T18:50:05.599Z,37.2
2017-04-12T18:52:07.780Z,37.1
2017-04-12T18:54:05.630Z,37.1
2017-04-12T18:56:05.359Z,37.1
2017-04-12T18:58:12.625Z,37.1
2017-04-12T19:00:06.492Z,37
2017-04-12T19:02:05.483Z,36.8
2017-04-12T19:04:05.712Z,37
2017-04-12T19:06:08.051Z,36.7
2017-04-12T19:08:06.219Z,36.7
2017-04-12T19:10:09.717Z,36.6
2017-04-12T19:12:05.797Z,36.6
2017-04-12T19:14:07.403Z,36.6
2017-04-12T19:16:08.500Z,36.6
2017-04-12T19:18:06.207Z,36.6
2017-04-12T19:20:12.411Z,36.6
2017-04-12T19:22:09.149Z,36.6
2017-04-12T19:24:05.811Z,36.5
2017-04-12T19:26:06.472Z,36.5
2017-04-12T19:28:11.641Z,36.5
2017-04-12T19:30:12.546Z,36.4
2017-04-12T19:32:06.089Z,36.4
2017-04-12T19:34:05.928Z,36.4
2017-04-12T19:36:05.545Z,36.3
2017-04-12T19:38:05.288Z,36.4
2017-04-12T19:40:05.684Z,36.3
2017-04-12T19:42:07.245Z,36.4
2017-04-12T19:44:09.203Z,36.3
2017-04-12T19:46:15.761Z,36.3
2017-04-12T19:48:13.360Z,36.3
2017-04-12T19:50:05.520Z,36.3
2017-04-12T19:56:08.620Z,36
2017-04-12T19:58:05.657Z,36.2
2017-04-12T20:00:06.568Z,36
2017-04-12T20:02:09.216Z,36
2017-04-12T20:04:11.248Z,35.9
2017-04-12T20:06:05.860Z,35.9
2017-04-12T20:08:05.809Z,36
2017-04-12T20:10:10.172Z,35.9
2017-04-12T20:12:06.119Z,35.9
2017-04-12T20:14:05.323Z,35.9
2017-04-12T20:16:08.765Z,35.9
2017-04-12T20:18:06.113Z,35.9
2017-04-12T20:20:06.225Z,35.9
2017-04-12T20:22:08.425Z,35.9
2017-04-12T20:24:05.138Z,35.8
2017-04-12T20:26:05.628Z,35.9
2017-04-12T20:28:08.066Z,35.8
2017-04-12T20:30:10.662Z,35.8
2017-04-12T20:32:06.838Z,35.8
2017-04-12T20:34:05.572Z,35.8
2017-04-12T20:36:08.687Z,35.8
2017-04-12T20:38:05.574Z,35.7
2017-04-12T20:40:08.242Z,35.8
2017-04-12T20:42:05.142Z,35.8
2017-04-12T20:44:10.107Z,35.8
2017-04-12T20:46:10.892Z,35.8
2017-04-12T20:48:05.681Z,35.8
2017-04-12T20:50:08.364Z,35.8
2017-04-12T20:52:07.888Z,35.8
2017-04-12T20:54:05.555Z,35.5
2017-04-12T20:56:06.197Z,35.8
2017-04-12T20:58:10.173Z,35.5
2017-04-12T21:00:05.968Z,35.5
2017-04-12T21:02:08.510Z,35.5
2017-04-12T21:04:05.745Z,35.4
2017-04-12T21:06:05.622Z,35.5
2017-04-12T21:08:05.430Z,35.4
2017-04-12T21:10:05.145Z,35.4
2017-04-12T21:12:07.095Z,35.4
2017-04-12T21:14:15.647Z,35.3
2017-04-12T21:16:05.388Z,35.3
2017-04-12T21:18:05.216Z,35.3
2017-04-12T21:20:06.856Z,35.3
2017-04-12T21:22:05.838Z,35.3
2017-04-12T21:24:08.316Z,35.4
2017-04-12T21:26:06.384Z,35.4
2017-04-12T21:28:05.150Z,35.3
2017-04-12T21:30:05.899Z,35.4
2017-04-12T21:32:06.153Z,35.3
2017-04-12T21:34:05.798Z,35.3
2017-04-12T21:36:05.508Z,35.3
2017-04-12T21:38:10.798Z,35.3
2017-04-12T21:40:05.163Z,35.3
2017-04-12T21:42:05.355Z,35.3
2017-04-12T21:44:05.174Z,35.3
2017-04-12T21:46:10.469Z,35
2017-04-12T21:48:07.905Z,35.3
2017-04-12T21:50:07.441Z,35.3
2017-04-12T21:52:05.338Z,35.3
2017-04-12T21:54:05.094Z,35.3
2017-04-12T21:56:06.151Z,35.3
2017-04-12T21:58:08.398Z,35.2
2017-04-12T22:00:05.122Z,35.3
2017-04-12T22:02:06.218Z,35.2
2017-04-12T22:04:05.866Z,35.1
2017-04-12T22:06:05.583Z,35.2
2017-04-12T22:08:05.444Z,35.1
2017-04-12T22:10:05.105Z,35.2
2017-04-12T22:12:06.420Z,35.2
2017-04-12T22:14:05.297Z,35.1
2017-04-12T22:16:05.963Z,34.9
2017-04-12T22:18:10.923Z,34.8
2017-04-12T22:20:06.549Z,34.8
2017-04-12T22:22:05.267Z,35.1
2017-04-12T22:24:05.979Z,34.9
2017-04-12T22:26:05.813Z,34.9
2017-04-12T22:28:13.413Z,34.8
2017-04-12T22:30:06.140Z,34.8
2017-04-12T22:32:11.201Z,34.8
2017-04-12T22:34:05.949Z,34.8
2017-04-12T22:36:05.690Z,34.8
2017-04-12T22:38:07.470Z,34.9
2017-04-12T22:40:05.418Z,34.8
2017-04-12T22:42:05.086Z,34.8
2017-04-12T22:44:06.181Z,34.8
2017-04-12T22:46:05.878Z,34.8
2017-04-12T22:48:05.113Z,34.8
2017-04-12T22:50:05.484Z,34.8
2017-04-12T22:52:05.312Z,34.8
2017-04-12T22:54:05.550Z,34.8
2017-04-12T22:56:05.527Z,34.8
2017-04-12T22:58:05.249Z,34.8
2017-04-12T23:00:06.242Z,34.9
2017-04-12T23:02:08.260Z,34.9
2017-04-12T23:04:06.007Z,34.9
2017-04-12T23:06:10.809Z,34.8
2017-04-12T23:08:06.908Z,34.8
2017-04-12T23:10:05.591Z,34.8
2017-04-12T23:12:05.476Z,34.8
2017-04-12T23:14:05.495Z,34.8
2017-04-12T23:16:05.687Z,34.8
2017-04-12T23:18:05.580Z,34.8
2017-04-12T23:20:05.600Z,34.8
2017-04-12T23:22:05.250Z,34.8
2017-04-12T23:24:08.520Z,34.8
2017-04-12T23:26:06.275Z,34.8
2017-04-12T23:28:05.951Z,34.8
2017-04-12T23:30:05.662Z,34.8
2017-04-12T23:32:05.761Z,34.8
2017-04-12T23:34:05.975Z,34.8
2017-04-12T23:36:05.715Z,34.8
2017-04-12T23:38:05.523Z,34.8
2017-04-12T23:40:05.731Z,34.8
2017-04-12T23:42:05.414Z,34.8
2017-04-12T23:44:05.453Z,34.8
2017-04-12T23:46:12.756Z,34.8
2017-04-12T23:48:05.678Z,34.8
2017-04-12T23:50:06.228Z,34.8
2017-04-12T23:52:08.438Z,34.8
2017-04-12T23:54:05.224Z,34.8
2017-04-12T23:56:06.027Z,34.8
2017-04-12T23:58:05.725Z,34.8
